createdAt,value
2018-08-13T00:02:01.100Z,31.4
2018-08-13T00:07:01.101Z,33.2
2018-08-13T00:12:01.098Z,34.8
2018-08-13T00:17:01.072Z,35.0
2018-08-13T00:22:01.105Z,36.5
2018-08-13T00:27:01.105Z,37.2
2018-08-13T00:32:01.174Z,38.2
2018-08-13T00:37:01.107Z,37.5
2018-08-13T00:42:01.107Z,38.2
2018-08-13T00:52:01.091Z,37.3
2018-08-13T00:58:01.144Z,36.8
2018-08-13T01:03:01.275Z,37.6
2018-08-13T01:08:01.137Z,38.2
2018-08-13T01:13:01.267Z,37.7
2018-08-13T01:18:01.141Z,38.8
2018-08-13T01:23:01.204Z,38.7
2018-08-13T01:28:01.140Z,38.5
2018-08-13T01:33:01.133Z,38.0
2018-08-13T01:38:01.135Z,38.2
2018-08-13T01:43:01.278Z,38.1
2018-08-13T01:48:01.135Z,37.7
2018-08-13T01:53:01.243Z,37.6
2018-08-13T01:58:01.109Z,36.5
2018-08-13T02:03:01.177Z,36.7
2018-08-13T02:08:01.117Z,35.8
2018-08-13T02:13:01.170Z,35.3
2018-08-13T02:18:01.098Z,33.9
2018-08-13T02:23:01.103Z,35.4
2018-08-13T02:28:01.108Z,35.2
2018-08-13T02:33:01.113Z,35.7
2018-08-13T02:38:01.110Z,36.4
2018-08-13T02:43:01.109Z,38.0
2018-08-13T02:48:01.107Z,37.6
2018-08-13T02:53:01.167Z,36.7
2018-08-13T03:03:01.165Z,35.9
2018-08-13T03:08:01.105Z,36.6
2018-08-13T03:13:01.234Z,37.0
2018-08-13T03:18:01.101Z,38.3
2018-08-13T03:23:01.171Z,39.4
2018-08-13T03:28:01.108Z,39.2
2018-08-13T03:33:01.171Z,38.5
2018-08-13T03:38:01.111Z,39.7
2018-08-13T03:43:01.238Z,39.4
2018-08-13T03:48:01.108Z,38.4
2018-08-13T03:53:01.176Z,38.3
2018-08-13T04:03:01.097Z,36.0
2018-08-13T04:08:01.126Z,35.0
2018-08-13T04:13:01.292Z,33.8
2018-08-13T04:18:01.099Z,34.2
2018-08-13T04:23:01.101Z,33.1
2018-08-13T04:28:01.104Z,34.1
2018-08-13T04:33:01.113Z,35.0
2018-08-13T04:38:01.105Z,35.9
2018-08-13T04:43:01.109Z,36.2
2018-08-13T04:48:01.099Z,36.8
2018-08-13T04:53:01.173Z,36.7
2018-08-13T04:58:01.107Z,36.6
2018-08-13T05:03:01.181Z,35.8
2018-08-13T05:08:01.112Z,36.2
2018-08-13T05:14:01.165Z,36.0
2018-08-13T05:19:01.231Z,35.7
2018-08-13T05:24:01.098Z,35.6
2018-08-13T05:29:01.167Z,36.2
2018-08-13T05:34:01.106Z,34.4
2018-08-13T05:39:01.166Z,33.6
2018-08-13T05:44:01.108Z,33.0
2018-08-13T05:49:01.235Z,32.2
2018-08-13T05:59:01.111Z,32.5
2018-08-13T06:04:06.113Z,32.8
2018-08-13T06:09:02.137Z,31.8
2018-08-13T06:14:01.101Z,31.7
2018-08-13T06:19:01.174Z,33.5
2018-08-13T06:24:01.103Z,33.0
2018-08-13T06:29:01.236Z,33.7
2018-08-13T06:34:01.125Z,34.3
2018-08-13T06:39:01.122Z,35.1
2018-08-13T06:44:01.113Z,32.3
2018-08-13T06:54:01.172Z,31.5
2018-08-13T06:59:06.165Z,31.9
2018-08-13T07:04:01.108Z,30.7
2018-08-13T07:09:01.226Z,30.8
2018-08-13T07:14:01.110Z,31.4
2018-08-13T07:19:01.168Z,30.6
2018-08-13T07:24:01.104Z,29.7
2018-08-13T07:29:01.174Z,30.0
2018-08-13T07:34:01.105Z,29.7
2018-08-13T07:39:01.146Z,28.6
2018-08-13T07:44:01.116Z,28.3
2018-08-13T07:54:01.224Z,27.0
2018-08-13T07:59:01.162Z,26.2
2018-08-13T08:04:01.094Z,25.5
2018-08-13T08:09:01.199Z,25.8
2018-08-13T08:14:01.100Z,24.8
2018-08-13T08:19:01.224Z,24.4
2018-08-13T08:24:01.101Z,25.3
2018-08-13T08:29:01.197Z,26.7
2018-08-13T08:34:01.101Z,26.0
2018-08-13T08:39:01.231Z,26.4
2018-08-13T08:44:01.102Z,26.0
2018-08-13T08:49:01.229Z,24.6
2018-08-13T08:54:01.113Z,22.3
2018-08-13T08:59:01.107Z,21.8
2018-08-13T09:04:01.105Z,22.0
2018-08-13T09:09:01.111Z,22.2
2018-08-13T09:24:01.106Z,21.6
2018-08-13T09:40:00.605Z,19.0
2018-08-13T09:45:00.585Z,17.0
2018-08-13T09:50:00.586Z,16.4
2018-08-13T09:55:00.589Z,16.6
2018-08-13T10:00:00.590Z,17.4
2018-08-13T10:05:00.588Z,17.1
2018-08-13T10:10:00.591Z,17.2
2018-08-13T10:15:00.593Z,17.2
2018-08-13T10:20:00.601Z,16.6
2018-08-13T10:25:00.603Z,15.5
2018-08-13T10:30:00.666Z,14.8
2018-08-13T10:35:00.628Z,14.5
2018-08-13T10:40:00.627Z,13.9
2018-08-13T10:45:00.628Z,13.5
2018-08-13T10:50:00.708Z,12.9
2018-08-13T10:55:00.628Z,12.4
2018-08-13T11:00:00.679Z,12.2
2018-08-13T11:05:00.605Z,12.4
2018-08-13T11:10:00.602Z,12.8
2018-08-13T11:15:00.606Z,13.3
2018-08-13T11:20:00.675Z,14.0
2018-08-13T11:25:00.603Z,14.7
2018-08-13T11:30:00.675Z,15.0
2018-08-13T11:35:00.617Z,15.6
2018-08-13T11:40:00.674Z,16.2
2018-08-13T11:45:00.610Z,16.4
2018-08-13T11:50:00.743Z,17.2
2018-08-13T11:55:00.625Z,17.8
2018-08-13T12:00:00.653Z,18.4
2018-08-13T12:05:00.645Z,18.2
2018-08-13T12:15:00.712Z,17.6
2018-08-13T12:20:00.724Z,17.2
2018-08-13T12:25:00.644Z,17.0
2018-08-13T12:30:00.689Z,17.4
2018-08-13T12:35:00.627Z,18.4
2018-08-13T12:40:00.782Z,19.2
2018-08-13T12:45:00.629Z,20.4
2018-08-13T12:50:00.656Z,20.7
2018-08-13T12:55:00.621Z,21.1
2018-08-13T13:00:00.697Z,21.4
2018-08-13T13:05:00.629Z,22.4
2018-08-13T13:10:00.699Z,22.0
2018-08-13T13:15:00.632Z,22.2
2018-08-13T13:25:00.702Z,20.8
2018-08-13T13:30:00.635Z,19.4
2018-08-13T13:35:00.639Z,19.5
2018-08-13T13:40:00.700Z,18.9
2018-08-13T13:45:00.637Z,19.2
2018-08-13T13:50:00.706Z,19.9
2018-08-13T13:55:00.646Z,19.5
2018-08-13T14:00:00.647Z,19.4
2018-08-13T14:10:00.644Z,18.9
2018-08-13T14:15:00.676Z,18.8
2018-08-13T14:20:00.800Z,19.6
2018-08-13T14:25:00.672Z,18.5
2018-08-13T14:30:00.738Z,17.5
2018-08-13T14:35:00.675Z,16.2
2018-08-13T14:40:00.739Z,14.7
2018-08-13T14:45:00.691Z,12.7
2018-08-13T14:50:00.828Z,12.5
2018-08-13T14:55:00.701Z,12.4
2018-08-13T15:00:00.696Z,13.3
2018-08-13T15:05:00.700Z,14.1
2018-08-13T15:10:00.761Z,14.2
2018-08-13T15:15:00.696Z,14.1
2018-08-13T15:20:00.831Z,14.2
2018-08-13T15:25:00.702Z,14.4
2018-08-13T15:30:00.704Z,14.1
2018-08-13T15:35:00.704Z,14.3
2018-08-13T15:40:00.771Z,15.1
2018-08-13T15:45:00.722Z,15.3
2018-08-13T15:50:00.704Z,14.9
2018-08-13T15:55:00.715Z,15.7
2018-08-13T16:00:00.825Z,16.3
2018-08-13T16:05:00.678Z,15.9
2018-08-13T16:10:00.676Z,16.5
2018-08-13T16:15:00.670Z,16.6
2018-08-13T16:20:00.732Z,16.7
2018-08-13T16:25:00.677Z,17.8
2018-08-13T16:30:00.737Z,19.1
2018-08-13T16:35:00.673Z,20.1
2018-08-13T16:40:00.675Z,20.8
2018-08-13T16:45:00.672Z,21.7
2018-08-13T16:50:00.677Z,21.4
2018-08-13T16:55:00.680Z,21.0
2018-08-13T17:00:00.741Z,20.6
2018-08-13T17:05:00.679Z,21.0
2018-08-13T17:10:00.746Z,21.1
2018-08-13T17:15:00.676Z,21.3
2018-08-13T17:20:00.684Z,21.9
2018-08-13T17:30:00.692Z,21.3
2018-08-13T17:35:00.690Z,21.2
2018-08-13T17:40:00.758Z,20.7
2018-08-13T17:45:00.687Z,19.9
2018-08-13T17:50:00.824Z,19.3
2018-08-13T17:55:00.692Z,18.9
2018-08-13T18:00:00.763Z,17.9
2018-08-13T18:05:00.695Z,17.8
2018-08-13T18:10:00.764Z,17.2
2018-08-13T18:15:00.725Z,17.2
2018-08-13T18:20:00.706Z,17.0
2018-08-13T18:25:00.705Z,16.8
2018-08-13T18:30:00.717Z,16.0
2018-08-13T18:35:00.730Z,15.8
2018-08-13T18:40:00.710Z,15.2
2018-08-13T18:45:00.714Z,15.6
2018-08-13T18:50:00.714Z,15.8
2018-08-13T18:55:00.716Z,16.0
2018-08-13T19:00:00.796Z,16.8
2018-08-13T19:05:00.721Z,17.3
2018-08-13T19:15:00.849Z,17.6
2018-08-13T19:20:00.721Z,18.6
2018-08-13T19:30:00.720Z,18.9
2018-08-13T19:35:00.727Z,18.7
2018-08-13T19:40:00.787Z,20.1
2018-08-13T19:45:00.730Z,21.7
2018-08-13T19:50:00.823Z,23.8
2018-08-13T19:55:00.732Z,25.9
2018-08-13T20:00:00.733Z,28.2
2018-08-13T20:05:00.735Z,28.6
2018-08-13T20:10:00.754Z,29.6
2018-08-13T20:15:00.759Z,31.1
2018-08-13T20:20:00.759Z,32.6
2018-08-13T20:25:00.755Z,32.8
2018-08-13T20:30:00.768Z,35.2
2018-08-13T20:35:00.767Z,37.5
2018-08-13T20:40:00.847Z,38.8
2018-08-13T20:45:00.774Z,39.8
2018-08-13T20:50:00.918Z,40.8
2018-08-13T20:55:00.774Z,40.2
2018-08-13T21:00:00.904Z,39.8
2018-08-13T21:05:00.794Z,39.2
2018-08-13T21:10:00.886Z,38.5
2018-08-13T21:15:00.800Z,38.2
2018-08-13T21:25:00.873Z,37.1
2018-08-13T21:30:00.928Z,36.5
2018-08-13T21:35:00.797Z,35.2
2018-08-13T21:40:00.868Z,35.7
2018-08-13T21:45:00.802Z,35.6
2018-08-13T21:55:00.896Z,35.5
2018-08-13T22:00:00.837Z,36.8
2018-08-13T22:05:00.768Z,36.9
2018-08-13T22:10:00.774Z,37.2
2018-08-13T22:15:00.766Z,36.6
2018-08-13T22:25:00.903Z,35.0
2018-08-13T22:30:00.835Z,34.4
2018-08-13T22:35:00.771Z,33.2
2018-08-13T22:40:00.901Z,32.5
2018-08-13T22:45:00.777Z,31.1
2018-08-13T22:50:00.883Z,31.2
2018-08-13T22:55:00.808Z,32.1
2018-08-13T23:00:00.935Z,32.9
2018-08-13T23:05:00.823Z,34.5
2018-08-13T23:10:00.843Z,35.8
2018-08-13T23:15:00.821Z,37.2
2018-08-13T23:20:00.887Z,36.9
2018-08-13T23:25:00.825Z,38.1
2018-08-13T23:30:00.824Z,38.5
2018-08-13T23:35:00.824Z,38.2
2018-08-13T23:40:00.847Z,39.6
2018-08-13T23:45:00.832Z,40.0
2018-08-13T23:50:00.894Z,39.6
2018-08-13T23:55:00.830Z,40.1
